sensor_id;sensor_type;location;lat;lon;timestamp;P1;durP1;ratioP1;P2;durP2;ratioP2
76103;SDS011;64831;44.870;37.336;2023-08-06T00:00:20;8.98;;;4.45;;
76103;SDS011;64831;44.870;37.336;2023-08-06T00:02:47;6.30;;;3.60;;
76103;SDS011;64831;44.870;37.336;2023-08-06T00:05:13;5.22;;;4.35;;
76103;SDS011;64831;44.870;37.336;2023-08-06T00:07:39;11.13;;;4.13;;
76103;SDS011;64831;44.870;37.336;2023-08-06T00:10:05;8.30;;;4.57;;
76103;SDS011;64831;44.870;37.336;2023-08-06T00:12:31;10.25;;;4.55;;
76103;SDS011;64831;44.870;37.336;2023-08-06T00:14:57;11.93;;;5.57;;
76103;SDS011;64831;44.870;37.336;2023-08-06T00:17:23;5.95;;;3.92;;
76103;SDS011;64831;44.870;37.336;2023-08-06T00:19:48;9.13;;;4.95;;
76103;SDS011;64831;44.870;37.336;2023-08-06T00:22:14;10.85;;;5.15;;
76103;SDS011;64831;44.870;37.336;2023-08-06T00:24:40;5.85;;;4.88;;
76103;SDS011;64831;44.870;37.336;2023-08-06T00:27:06;8.85;;;4.68;;
76103;SDS011;64831;44.870;37.336;2023-08-06T00:29:32;7.45;;;5.10;;
76103;SDS011;64831;44.870;37.336;2023-08-06T00:31:58;12.77;;;5.03;;
76103;SDS011;64831;44.870;37.336;2023-08-06T00:34:24;9.48;;;4.75;;
76103;SDS011;64831;44.870;37.336;2023-08-06T00:36:50;10.75;;;5.18;;
76103;SDS011;64831;44.870;37.336;2023-08-06T00:39:16;11.07;;;5.05;;
76103;SDS011;64831;44.870;37.336;2023-08-06T00:41:42;11.18;;;5.38;;
76103;SDS011;64831;44.870;37.336;2023-08-06T00:44:08;13.23;;;4.88;;
76103;SDS011;64831;44.870;37.336;2023-08-06T00:46:34;11.43;;;4.88;;
76103;SDS011;64831;44.870;37.336;2023-08-06T00:49:00;10.38;;;4.90;;
76103;SDS011;64831;44.870;37.336;2023-08-06T00:51:26;12.63;;;5.28;;
76103;SDS011;64831;44.870;37.336;2023-08-06T00:53:52;9.50;;;5.22;;
76103;SDS011;64831;44.870;37.336;2023-08-06T00:56:19;7.78;;;5.20;;
76103;SDS011;64831;44.870;37.336;2023-08-06T00:58:45;10.98;;;5.25;;
76103;SDS011;64831;44.870;37.336;2023-08-06T01:01:12;10.50;;;5.45;;
76103;SDS011;64831;44.870;37.336;2023-08-06T01:03:38;7.50;;;5.15;;
76103;SDS011;64831;44.870;37.336;2023-08-06T01:06:04;9.77;;;6.35;;
76103;SDS011;64831;44.870;37.336;2023-08-06T01:14:19;11.27;;;5.45;;
76103;SDS011;64831;44.870;37.336;2023-08-06T01:16:51;10.48;;;5.18;;
76103;SDS011;64831;44.870;37.336;2023-08-06T01:19:20;11.95;;;5.03;;
76103;SDS011;64831;44.870;37.336;2023-08-06T01:21:46;8.48;;;4.72;;
76103;SDS011;64831;44.870;37.336;2023-08-06T01:24:12;7.18;;;5.55;;
76103;SDS011;64831;44.870;37.336;2023-08-06T01:26:42;10.85;;;5.78;;
76103;SDS011;64831;44.870;37.336;2023-08-06T01:29:25;9.52;;;5.20;;
76103;SDS011;64831;44.870;37.336;2023-08-06T01:31:55;13.18;;;5.88;;
76103;SDS011;64831;44.870;37.336;2023-08-06T01:34:28;10.02;;;5.43;;
76103;SDS011;64831;44.870;37.336;2023-08-06T01:36:56;11.05;;;5.45;;
76103;SDS011;64831;44.870;37.336;2023-08-06T01:39:25;10.70;;;5.75;;
76103;SDS011;64831;44.870;37.336;2023-08-06T01:41:51;12.60;;;5.65;;
76103;SDS011;64831;44.870;37.336;2023-08-06T01:44:17;9.27;;;5.18;;
76103;SDS011;64831;44.870;37.336;2023-08-06T01:46:43;10.82;;;5.50;;
76103;SDS011;64831;44.870;37.336;2023-08-06T01:49:09;13.30;;;5.80;;
76103;SDS011;64831;44.870;37.336;2023-08-06T01:51:35;10.40;;;6.05;;
76103;SDS011;64831;44.870;37.336;2023-08-06T01:54:01;9.13;;;4.78;;
76103;SDS011;64831;44.870;37.336;2023-08-06T01:56:27;14.00;;;6.20;;
76103;SDS011;64831;44.870;37.336;2023-08-06T01:58:53;10.75;;;5.50;;
76103;SDS011;64831;44.870;37.336;2023-08-06T02:01:19;11.55;;;6.05;;
76103;SDS011;64831;44.870;37.336;2023-08-06T02:03:44;13.57;;;5.70;;
76103;SDS011;64831;44.870;37.336;2023-08-06T02:06:10;15.60;;;5.88;;
76103;SDS011;64831;44.870;37.336;2023-08-06T02:08:36;12.57;;;5.85;;
76103;SDS011;64831;44.870;37.336;2023-08-06T02:11:02;10.23;;;5.95;;
76103;SDS011;64831;44.870;37.336;2023-08-06T02:13:29;14.18;;;5.45;;
76103;SDS011;64831;44.870;37.336;2023-08-06T02:15:55;7.90;;;5.18;;
76103;SDS011;64831;44.870;37.336;2023-08-06T02:18:21;16.20;;;6.07;;
76103;SDS011;64831;44.870;37.336;2023-08-06T02:20:57;9.50;;;5.80;;
76103;SDS011;64831;44.870;37.336;2023-08-06T02:23:24;12.40;;;5.55;;
76103;SDS011;64831;44.870;37.336;2023-08-06T02:25:58;11.77;;;5.78;;
76103;SDS011;64831;44.870;37.336;2023-08-06T02:28:23;14.75;;;7.30;;
76103;SDS011;64831;44.870;37.336;2023-08-06T02:30:52;11.63;;;6.60;;
76103;SDS011;64831;44.870;37.336;2023-08-06T02:33:18;9.40;;;5.70;;
76103;SDS011;64831;44.870;37.336;2023-08-06T02:35:44;14.43;;;6.28;;
76103;SDS011;64831;44.870;37.336;2023-08-06T02:38:10;10.13;;;6.10;;
76103;SDS011;64831;44.870;37.336;2023-08-06T02:40:36;13.18;;;5.90;;
76103;SDS011;64831;44.870;37.336;2023-08-06T02:43:02;8.50;;;5.30;;
76103;SDS011;64831;44.870;37.336;2023-08-06T02:45:28;7.28;;;4.60;;
76103;SDS011;64831;44.870;37.336;2023-08-06T02:47:54;10.10;;;6.25;;
76103;SDS011;64831;44.870;37.336;2023-08-06T02:50:20;9.98;;;5.70;;
76103;SDS011;64831;44.870;37.336;2023-08-06T02:52:47;10.23;;;6.13;;
76103;SDS011;64831;44.870;37.336;2023-08-06T02:55:13;12.30;;;6.07;;
76103;SDS011;64831;44.870;37.336;2023-08-06T02:57:43;9.35;;;5.45;;
76103;SDS011;64831;44.870;37.336;2023-08-06T03:00:09;9.52;;;5.32;;
76103;SDS011;64831;44.870;37.336;2023-08-06T03:02:37;13.10;;;5.07;;
76103;SDS011;64831;44.870;37.336;2023-08-06T03:05:23;14.35;;;5.72;;
76103;SDS011;64831;44.870;37.336;2023-08-06T03:07:49;8.05;;;5.47;;
76103;SDS011;64831;44.870;37.336;2023-08-06T03:10:21;10.38;;;5.18;;
76103;SDS011;64831;44.870;37.336;2023-08-06T03:12:50;11.82;;;5.80;;
76103;SDS011;64831;44.870;37.336;2023-08-06T03:15:18;10.75;;;5.53;;
76103;SDS011;64831;44.870;37.336;2023-08-06T03:17:45;11.73;;;5.68;;
76103;SDS011;64831;44.870;37.336;2023-08-06T03:20:12;11.27;;;5.60;;
76103;SDS011;64831;44.870;37.336;2023-08-06T03:22:39;10.65;;;5.63;;
76103;SDS011;64831;44.870;37.336;2023-08-06T03:25:06;8.15;;;5.60;;
76103;SDS011;64831;44.870;37.336;2023-08-06T03:27:33;13.25;;;5.80;;
76103;SDS011;64831;44.870;37.336;2023-08-06T03:30:00;9.77;;;5.70;;
76103;SDS011;64831;44.870;37.336;2023-08-06T03:32:26;11.93;;;6.20;;
76103;SDS011;64831;44.870;37.336;2023-08-06T03:34:53;10.27;;;5.85;;
76103;SDS011;64831;44.870;37.336;2023-08-06T03:37:21;15.45;;;6.57;;
76103;SDS011;64831;44.870;37.336;2023-08-06T03:39:47;9.90;;;5.32;;
76103;SDS011;64831;44.870;37.336;2023-08-06T03:42:13;8.43;;;5.00;;
76103;SDS011;64831;44.870;37.336;2023-08-06T03:44:39;8.88;;;5.13;;
76103;SDS011;64831;44.870;37.336;2023-08-06T03:47:07;9.65;;;5.68;;
76103;SDS011;64831;44.870;37.336;2023-08-06T03:49:33;7.88;;;5.40;;
76103;SDS011;64831;44.870;37.336;2023-08-06T03:51:59;14.65;;;5.40;;
76103;SDS011;64831;44.870;37.336;2023-08-06T03:54:25;9.93;;;5.22;;
76103;SDS011;64831;44.870;37.336;2023-08-06T03:56:51;10.38;;;5.55;;
76103;SDS011;64831;44.870;37.336;2023-08-06T03:59:17;11.18;;;5.57;;
76103;SDS011;64831;44.870;37.336;2023-08-06T04:01:45;8.73;;;5.78;;
76103;SDS011;64831;44.870;37.336;2023-08-06T04:04:10;10.13;;;5.53;;
76103;SDS011;64831;44.870;37.336;2023-08-06T04:06:36;9.80;;;6.05;;
76103;SDS011;64831;44.870;37.336;2023-08-06T04:09:02;6.63;;;3.75;;
76103;SDS011;64831;44.870;37.336;2023-08-06T04:11:30;12.27;;;5.88;;
76103;SDS011;64831;44.870;37.336;2023-08-06T04:13:56;8.35;;;5.43;;
76103;SDS011;64831;44.870;37.336;2023-08-06T04:16:23;12.27;;;5.40;;
76103;SDS011;64831;44.870;37.336;2023-08-06T04:18:51;6.90;;;4.75;;
76103;SDS011;64831;44.870;37.336;2023-08-06T04:21:19;8.07;;;5.35;;
76103;SDS011;64831;44.870;37.336;2023-08-06T04:23:45;12.52;;;5.85;;
76103;SDS011;64831;44.870;37.336;2023-08-06T04:26:12;11.20;;;5.72;;
76103;SDS011;64831;44.870;37.336;2023-08-06T04:28:38;10.77;;;5.03;;
76103;SDS011;64831;44.870;37.336;2023-08-06T04:31:04;9.27;;;5.75;;
76103;SDS011;64831;44.870;37.336;2023-08-06T04:33:32;13.25;;;6.22;;
76103;SDS011;64831;44.870;37.336;2023-08-06T04:36:02;13.02;;;6.00;;
76103;SDS011;64831;44.870;37.336;2023-08-06T04:38:28;9.60;;;5.80;;
76103;SDS011;64831;44.870;37.336;2023-08-06T04:40:55;12.00;;;5.78;;
76103;SDS011;64831;44.870;37.336;2023-08-06T04:43:22;11.50;;;5.35;;
76103;SDS011;64831;44.870;37.336;2023-08-06T04:45:48;13.10;;;5.57;;
76103;SDS011;64831;44.870;37.336;2023-08-06T04:48:15;10.02;;;4.47;;
76103;SDS011;64831;44.870;37.336;2023-08-06T04:50:45;10.45;;;5.30;;
76103;SDS011;64831;44.870;37.336;2023-08-06T04:53:11;27.17;;;6.30;;
76103;SDS011;64831;44.870;37.336;2023-08-06T04:55:37;13.07;;;5.07;;
76103;SDS011;64831;44.870;37.336;2023-08-06T04:58:03;18.27;;;5.63;;
76103;SDS011;64831;44.870;37.336;2023-08-06T05:00:29;12.80;;;5.53;;
76103;SDS011;64831;44.870;37.336;2023-08-06T05:02:56;11.30;;;5.63;;
76103;SDS011;64831;44.870;37.336;2023-08-06T05:05:22;12.55;;;5.68;;
76103;SDS011;64831;44.870;37.336;2023-08-06T05:07:48;11.57;;;5.93;;
76103;SDS011;64831;44.870;37.336;2023-08-06T05:10:15;11.75;;;5.63;;
76103;SDS011;64831;44.870;37.336;2023-08-06T05:12:41;12.23;;;5.53;;
76103;SDS011;64831;44.870;37.336;2023-08-06T05:15:07;11.38;;;5.80;;
76103;SDS011;64831;44.870;37.336;2023-08-06T05:17:34;14.90;;;5.70;;
76103;SDS011;64831;44.870;37.336;2023-08-06T05:20:00;11.05;;;4.93;;
76103;SDS011;64831;44.870;37.336;2023-08-06T05:22:25;12.68;;;5.28;;
76103;SDS011;64831;44.870;37.336;2023-08-06T05:24:51;10.50;;;5.18;;
76103;SDS011;64831;44.870;37.336;2023-08-06T05:27:17;13.57;;;5.28;;
76103;SDS011;64831;44.870;37.336;2023-08-06T05:29:47;10.43;;;5.47;;
76103;SDS011;64831;44.870;37.336;2023-08-06T05:32:13;11.65;;;5.13;;
76103;SDS011;64831;44.870;37.336;2023-08-06T05:34:39;15.52;;;5.07;;
76103;SDS011;64831;44.870;37.336;2023-08-06T05:37:06;13.52;;;4.90;;
76103;SDS011;64831;44.870;37.336;2023-08-06T05:39:32;12.60;;;5.15;;
76103;SDS011;64831;44.870;37.336;2023-08-06T05:41:58;9.43;;;4.88;;
76103;SDS011;64831;44.870;37.336;2023-08-06T05:44:24;14.00;;;5.53;;
76103;SDS011;64831;44.870;37.336;2023-08-06T05:46:50;15.68;;;5.65;;
76103;SDS011;64831;44.870;37.336;2023-08-06T05:49:16;12.43;;;5.10;;
76103;SDS011;64831;44.870;37.336;2023-08-06T05:51:42;14.95;;;4.90;;
76103;SDS011;64831;44.870;37.336;2023-08-06T05:54:08;13.57;;;5.65;;
76103;SDS011;64831;44.870;37.336;2023-08-06T05:56:34;10.73;;;4.53;;
76103;SDS011;64831;44.870;37.336;2023-08-06T05:59:00;15.50;;;6.50;;
76103;SDS011;64831;44.870;37.336;2023-08-06T06:01:26;11.15;;;4.75;;
76103;SDS011;64831;44.870;37.336;2023-08-06T06:03:52;12.70;;;4.55;;
76103;SDS011;64831;44.870;37.336;2023-08-06T06:06:18;10.13;;;4.50;;
76103;SDS011;64831;44.870;37.336;2023-08-06T06:08:45;16.17;;;6.70;;
76103;SDS011;64831;44.870;37.336;2023-08-06T06:11:11;10.00;;;4.70;;
76103;SDS011;64831;44.870;37.336;2023-08-06T06:13:37;6.63;;;4.28;;
76103;SDS011;64831;44.870;37.336;2023-08-06T06:16:03;12.20;;;4.60;;
76103;SDS011;64831;44.870;37.336;2023-08-06T06:18:30;11.00;;;4.57;;
76103;SDS011;64831;44.870;37.336;2023-08-06T06:20:56;8.82;;;4.60;;
76103;SDS011;64831;44.870;37.336;2023-08-06T06:23:22;6.45;;;4.18;;
76103;SDS011;64831;44.870;37.336;2023-08-06T06:25:49;11.98;;;4.20;;
76103;SDS011;64831;44.870;37.336;2023-08-06T06:28:18;12.15;;;4.30;;
76103;SDS011;64831;44.870;37.336;2023-08-06T06:30:44;8.13;;;3.55;;
76103;SDS011;64831;44.870;37.336;2023-08-06T06:33:10;8.25;;;2.70;;
76103;SDS011;64831;44.870;37.336;2023-08-06T06:35:36;17.92;;;7.07;;
76103;SDS011;64831;44.870;37.336;2023-08-06T06:38:02;7.90;;;2.90;;
76103;SDS011;64831;44.870;37.336;2023-08-06T06:40:28;9.27;;;3.00;;
76103;SDS011;64831;44.870;37.336;2023-08-06T06:42:54;11.68;;;3.08;;
76103;SDS011;64831;44.870;37.336;2023-08-06T06:45:20;5.10;;;2.38;;
76103;SDS011;64831;44.870;37.336;2023-08-06T06:47:46;7.55;;;2.92;;
76103;SDS011;64831;44.870;37.336;2023-08-06T06:50:12;8.65;;;2.85;;
76103;SDS011;64831;44.870;37.336;2023-08-06T06:52:38;11.73;;;2.63;;
76103;SDS011;64831;44.870;37.336;2023-08-06T06:55:04;7.32;;;2.60;;
76103;SDS011;64831;44.870;37.336;2023-08-06T06:57:30;9.25;;;3.65;;
76103;SDS011;64831;44.870;37.336;2023-08-06T06:59:56;10.77;;;3.03;;
76103;SDS011;64831;44.870;37.336;2023-08-06T07:02:22;7.70;;;2.70;;
76103;SDS011;64831;44.870;37.336;2023-08-06T07:04:49;8.05;;;3.00;;
76103;SDS011;64831;44.870;37.336;2023-08-06T07:07:15;3.95;;;2.65;;
76103;SDS011;64831;44.870;37.336;2023-08-06T07:09:41;11.13;;;3.03;;
76103;SDS011;64831;44.870;37.336;2023-08-06T07:12:07;7.78;;;3.53;;
76103;SDS011;64831;44.870;37.336;2023-08-06T07:14:33;7.03;;;3.03;;
76103;SDS011;64831;44.870;37.336;2023-08-06T07:16:59;12.25;;;2.80;;
76103;SDS011;64831;44.870;37.336;2023-08-06T07:19:25;13.45;;;2.70;;
76103;SDS011;64831;44.870;37.336;2023-08-06T07:21:51;6.07;;;2.72;;
76103;SDS011;64831;44.870;37.336;2023-08-06T07:24:17;9.85;;;2.58;;
76103;SDS011;64831;44.870;37.336;2023-08-06T07:26:43;6.70;;;2.75;;
76103;SDS011;64831;44.870;37.336;2023-08-06T07:29:12;8.60;;;2.80;;
76103;SDS011;64831;44.870;37.336;2023-08-06T07:31:38;11.90;;;2.85;;
76103;SDS011;64831;44.870;37.336;2023-08-06T07:34:04;8.10;;;2.42;;
76103;SDS011;64831;44.870;37.336;2023-08-06T07:36:29;6.40;;;2.53;;
76103;SDS011;64831;44.870;37.336;2023-08-06T07:38:56;8.23;;;2.50;;
76103;SDS011;64831;44.870;37.336;2023-08-06T07:41:22;12.38;;;3.13;;
76103;SDS011;64831;44.870;37.336;2023-08-06T07:43:48;6.65;;;2.83;;
76103;SDS011;64831;44.870;37.336;2023-08-06T07:46:15;9.18;;;2.80;;
76103;SDS011;64831;44.870;37.336;2023-08-06T07:48:40;9.63;;;2.95;;
76103;SDS011;64831;44.870;37.336;2023-08-06T07:51:06;9.93;;;2.60;;
76103;SDS011;64831;44.870;37.336;2023-08-06T07:53:32;8.63;;;2.38;;
76103;SDS011;64831;44.870;37.336;2023-08-06T07:55:58;3.88;;;2.28;;
76103;SDS011;64831;44.870;37.336;2023-08-06T07:58:26;9.95;;;2.50;;
76103;SDS011;64831;44.870;37.336;2023-08-06T08:00:54;7.45;;;2.80;;
76103;SDS011;64831;44.870;37.336;2023-08-06T08:03:20;9.80;;;3.30;;
76103;SDS011;64831;44.870;37.336;2023-08-06T08:05:46;9.07;;;2.72;;
76103;SDS011;64831;44.870;37.336;2023-08-06T08:08:12;9.55;;;3.90;;
76103;SDS011;64831;44.870;37.336;2023-08-06T08:10:38;9.13;;;3.58;;
76103;SDS011;64831;44.870;37.336;2023-08-06T08:13:04;13.50;;;2.85;;
76103;SDS011;64831;44.870;37.336;2023-08-06T08:15:31;5.18;;;2.47;;
76103;SDS011;64831;44.870;37.336;2023-08-06T08:17:58;8.10;;;2.53;;
76103;SDS011;64831;44.870;37.336;2023-08-06T08:20:24;5.50;;;2.60;;
76103;SDS011;64831;44.870;37.336;2023-08-06T08:22:57;8.23;;;2.65;;
76103;SDS011;64831;44.870;37.336;2023-08-06T08:25:24;9.53;;;3.07;;
76103;SDS011;64831;44.870;37.336;2023-08-06T08:27:50;8.07;;;2.90;;
76103;SDS011;64831;44.870;37.336;2023-08-06T08:30:16;8.57;;;2.78;;
76103;SDS011;64831;44.870;37.336;2023-08-06T08:32:42;6.47;;;2.90;;
76103;SDS011;64831;44.870;37.336;2023-08-06T08:35:08;8.25;;;2.65;;
76103;SDS011;64831;44.870;37.336;2023-08-06T08:37:34;6.30;;;2.70;;
76103;SDS011;64831;44.870;37.336;2023-08-06T08:40:00;7.28;;;4.85;;
76103;SDS011;64831;44.870;37.336;2023-08-06T08:42:26;5.65;;;2.80;;
76103;SDS011;64831;44.870;37.336;2023-08-06T08:44:52;5.20;;;2.63;;
76103;SDS011;64831;44.870;37.336;2023-08-06T08:47:20;8.60;;;3.50;;
76103;SDS011;64831;44.870;37.336;2023-08-06T08:49:45;10.20;;;2.67;;
76103;SDS011;64831;44.870;37.336;2023-08-06T08:52:13;9.82;;;3.33;;
76103;SDS011;64831;44.870;37.336;2023-08-06T08:57:08;5.57;;;2.55;;
76103;SDS011;64831;44.870;37.336;2023-08-06T08:59:34;5.28;;;2.60;;
76103;SDS011;64831;44.870;37.336;2023-08-06T09:02:01;3.28;;;1.75;;
76103;SDS011;64831;44.870;37.336;2023-08-06T09:04:29;4.90;;;2.38;;
76103;SDS011;64831;44.870;37.336;2023-08-06T09:06:57;6.88;;;2.90;;
76103;SDS011;64831;44.870;37.336;2023-08-06T09:09:28;7.53;;;2.60;;
76103;SDS011;64831;44.870;37.336;2023-08-06T09:12:01;6.70;;;3.50;;
76103;SDS011;64831;44.870;37.336;2023-08-06T09:14:31;6.10;;;2.60;;
76103;SDS011;64831;44.870;37.336;2023-08-06T09:16:57;9.20;;;2.60;;
76103;SDS011;64831;44.870;37.336;2023-08-06T09:19:24;10.07;;;2.80;;
76103;SDS011;64831;44.870;37.336;2023-08-06T09:21:51;4.70;;;2.90;;
76103;SDS011;64831;44.870;37.336;2023-08-06T09:24:21;11.18;;;5.20;;
76103;SDS011;64831;44.870;37.336;2023-08-06T09:26:50;8.18;;;2.90;;
76103;SDS011;64831;44.870;37.336;2023-08-06T09:29:16;7.68;;;2.90;;
76103;SDS011;64831;44.870;37.336;2023-08-06T09:31:43;9.05;;;3.63;;
76103;SDS011;64831;44.870;37.336;2023-08-06T09:36:46;5.60;;;2.72;;
76103;SDS011;64831;44.870;37.336;2023-08-06T09:39:21;9.65;;;3.30;;
76103;SDS011;64831;44.870;37.336;2023-08-06T09:41:55;7.65;;;2.88;;
76103;SDS011;64831;44.870;37.336;2023-08-06T09:44:27;5.65;;;4.05;;
76103;SDS011;64831;44.870;37.336;2023-08-06T09:46:54;11.85;;;6.00;;
76103;SDS011;64831;44.870;37.336;2023-08-06T09:49:28;10.35;;;2.58;;
76103;SDS011;64831;44.870;37.336;2023-08-06T09:52:11;9.27;;;3.00;;
76103;SDS011;64831;44.870;37.336;2023-08-06T09:54:38;4.35;;;2.13;;
76103;SDS011;64831;44.870;37.336;2023-08-06T09:57:04;4.13;;;2.53;;
76103;SDS011;64831;44.870;37.336;2023-08-06T09:59:32;2.30;;;1.65;;
76103;SDS011;64831;44.870;37.336;2023-08-06T10:02:00;9.40;;;2.50;;
76103;SDS011;64831;44.870;37.336;2023-08-06T10:04:26;6.22;;;2.47;;
76103;SDS011;64831;44.870;37.336;2023-08-06T10:06:54;11.82;;;5.80;;
76103;SDS011;64831;44.870;37.336;2023-08-06T10:09:20;7.78;;;3.15;;
76103;SDS011;64831;44.870;37.336;2023-08-06T10:11:49;6.82;;;2.90;;
76103;SDS011;64831;44.870;37.336;2023-08-06T10:16:56;3.42;;;2.80;;
76103;SDS011;64831;44.870;37.336;2023-08-06T10:19:24;13.90;;;4.63;;
76103;SDS011;64831;44.870;37.336;2023-08-06T10:24:48;8.63;;;2.88;;
76103;SDS011;64831;44.870;37.336;2023-08-06T10:32:51;9.65;;;3.33;;
76103;SDS011;64831;44.870;37.336;2023-08-06T10:40:37;5.50;;;2.70;;
76103;SDS011;64831;44.870;37.336;2023-08-06T10:43:05;8.77;;;4.47;;
76103;SDS011;64831;44.870;37.336;2023-08-06T10:45:36;10.00;;;3.63;;
76103;SDS011;64831;44.870;37.336;2023-08-06T10:48:03;9.55;;;3.40;;
76103;SDS011;64831;44.870;37.336;2023-08-06T10:50:30;5.50;;;2.83;;
76103;SDS011;64831;44.870;37.336;2023-08-06T10:52:56;6.90;;;2.72;;
76103;SDS011;64831;44.870;37.336;2023-08-06T10:55:24;6.38;;;2.65;;
76103;SDS011;64831;44.870;37.336;2023-08-06T10:57:54;7.40;;;3.08;;
76103;SDS011;64831;44.870;37.336;2023-08-06T11:00:22;8.82;;;3.45;;
76103;SDS011;64831;44.870;37.336;2023-08-06T11:02:49;12.18;;;3.30;;
76103;SDS011;64831;44.870;37.336;2023-08-06T11:05:16;13.48;;;2.88;;
76103;SDS011;64831;44.870;37.336;2023-08-06T11:07:43;8.93;;;2.80;;
76103;SDS011;64831;44.870;37.336;2023-08-06T11:10:10;4.30;;;2.45;;
76103;SDS011;64831;44.870;37.336;2023-08-06T11:12:37;5.78;;;2.60;;
76103;SDS011;64831;44.870;37.336;2023-08-06T11:15:04;10.02;;;2.92;;
76103;SDS011;64831;44.870;37.336;2023-08-06T11:17:33;6.32;;;2.58;;
76103;SDS011;64831;44.870;37.336;2023-08-06T11:20:00;5.32;;;2.40;;
76103;SDS011;64831;44.870;37.336;2023-08-06T11:22:30;8.00;;;2.53;;
76103;SDS011;64831;44.870;37.336;2023-08-06T11:24:56;7.50;;;2.35;;
76103;SDS011;64831;44.870;37.336;2023-08-06T11:27:22;5.43;;;1.90;;
76103;SDS011;64831;44.870;37.336;2023-08-06T11:29:48;7.43;;;3.65;;
76103;SDS011;64831;44.870;37.336;2023-08-06T11:32:14;5.53;;;2.25;;
76103;SDS011;64831;44.870;37.336;2023-08-06T11:34:42;8.90;;;2.97;;
76103;SDS011;64831;44.870;37.336;2023-08-06T11:37:08;9.30;;;2.80;;
76103;SDS011;64831;44.870;37.336;2023-08-06T11:39:36;9.50;;;2.95;;
76103;SDS011;64831;44.870;37.336;2023-08-06T11:42:04;8.45;;;2.70;;
76103;SDS011;64831;44.870;37.336;2023-08-06T11:44:32;5.68;;;2.95;;
76103;SDS011;64831;44.870;37.336;2023-08-06T11:49:41;4.30;;;2.35;;
76103;SDS011;64831;44.870;37.336;2023-08-06T11:54:41;7.43;;;2.70;;
76103;SDS011;64831;44.870;37.336;2023-08-06T11:57:08;6.63;;;2.38;;
76103;SDS011;64831;44.870;37.336;2023-08-06T11:59:36;11.63;;;3.45;;
76103;SDS011;64831;44.870;37.336;2023-08-06T12:02:04;10.67;;;2.63;;
76103;SDS011;64831;44.870;37.336;2023-08-06T12:07:29;14.10;;;3.15;;
76103;SDS011;64831;44.870;37.336;2023-08-06T12:09:55;7.93;;;3.22;;
76103;SDS011;64831;44.870;37.336;2023-08-06T12:12:22;4.57;;;2.45;;
76103;SDS011;64831;44.870;37.336;2023-08-06T12:14:49;14.70;;;2.90;;
76103;SDS011;64831;44.870;37.336;2023-08-06T12:17:15;9.10;;;2.70;;
76103;SDS011;64831;44.870;37.336;2023-08-06T12:19:41;9.98;;;2.60;;
76103;SDS011;64831;44.870;37.336;2023-08-06T12:22:07;11.15;;;2.80;;
76103;SDS011;64831;44.870;37.336;2023-08-06T12:24:33;6.38;;;2.15;;
76103;SDS011;64831;44.870;37.336;2023-08-06T12:26:59;8.38;;;3.05;;
76103;SDS011;64831;44.870;37.336;2023-08-06T12:29:27;10.23;;;2.70;;
76103;SDS011;64831;44.870;37.336;2023-08-06T12:31:53;11.05;;;2.92;;
76103;SDS011;64831;44.870;37.336;2023-08-06T12:34:19;8.35;;;2.60;;
76103;SDS011;64831;44.870;37.336;2023-08-06T12:36:45;6.95;;;3.13;;
76103;SDS011;64831;44.870;37.336;2023-08-06T12:39:11;7.03;;;2.70;;
76103;SDS011;64831;44.870;37.336;2023-08-06T12:41:37;10.27;;;2.70;;
76103;SDS011;64831;44.870;37.336;2023-08-06T12:44:03;9.73;;;2.58;;
76103;SDS011;64831;44.870;37.336;2023-08-06T12:46:29;7.78;;;2.50;;
76103;SDS011;64831;44.870;37.336;2023-08-06T12:48:56;6.78;;;2.38;;
76103;SDS011;64831;44.870;37.336;2023-08-06T12:51:30;12.60;;;3.17;;
76103;SDS011;64831;44.870;37.336;2023-08-06T12:56:22;9.90;;;2.70;;
76103;SDS011;64831;44.870;37.336;2023-08-06T12:58:48;13.60;;;3.40;;
76103;SDS011;64831;44.870;37.336;2023-08-06T13:01:14;4.88;;;2.20;;
76103;SDS011;64831;44.870;37.336;2023-08-06T13:03:40;8.20;;;3.00;;
76103;SDS011;64831;44.870;37.336;2023-08-06T13:06:06;9.73;;;3.05;;
76103;SDS011;64831;44.870;37.336;2023-08-06T13:08:33;6.13;;;2.78;;
76103;SDS011;64831;44.870;37.336;2023-08-06T13:10:59;7.47;;;2.95;;
76103;SDS011;64831;44.870;37.336;2023-08-06T13:13:24;6.70;;;2.50;;
76103;SDS011;64831;44.870;37.336;2023-08-06T13:15:52;7.82;;;2.65;;
76103;SDS011;64831;44.870;37.336;2023-08-06T13:18:18;2.92;;;1.75;;
76103;SDS011;64831;44.870;37.336;2023-08-06T13:20:44;9.07;;;2.70;;
76103;SDS011;64831;44.870;37.336;2023-08-06T13:23:13;8.85;;;2.58;;
76103;SDS011;64831;44.870;37.336;2023-08-06T13:25:41;10.53;;;2.80;;
76103;SDS011;64831;44.870;37.336;2023-08-06T13:28:07;9.30;;;3.30;;
76103;SDS011;64831;44.870;37.336;2023-08-06T13:30:34;9.32;;;3.25;;
76103;SDS011;64831;44.870;37.336;2023-08-06T13:33:09;5.00;;;2.50;;
76103;SDS011;64831;44.870;37.336;2023-08-06T13:35:35;8.33;;;2.77;;
76103;SDS011;64831;44.870;37.336;2023-08-06T13:38:01;10.68;;;2.95;;
76103;SDS011;64831;44.870;37.336;2023-08-06T13:40:32;11.85;;;3.10;;
76103;SDS011;64831;44.870;37.336;2023-08-06T13:42:58;9.30;;;3.00;;
76103;SDS011;64831;44.870;37.336;2023-08-06T13:45:25;9.52;;;2.63;;
76103;SDS011;64831;44.870;37.336;2023-08-06T13:47:51;3.85;;;2.10;;
76103;SDS011;64831;44.870;37.336;2023-08-06T13:50:17;10.52;;;3.00;;
76103;SDS011;64831;44.870;37.336;2023-08-06T13:52:44;8.63;;;3.10;;
76103;SDS011;64831;44.870;37.336;2023-08-06T13:55:10;5.25;;;3.20;;
76103;SDS011;64831;44.870;37.336;2023-08-06T13:57:36;8.50;;;3.42;;
76103;SDS011;64831;44.870;37.336;2023-08-06T14:00:02;6.15;;;2.92;;
76103;SDS011;64831;44.870;37.336;2023-08-06T14:02:37;7.10;;;3.40;;
76103;SDS011;64831;44.870;37.336;2023-08-06T14:05:04;12.30;;;2.40;;
76103;SDS011;64831;44.870;37.336;2023-08-06T14:07:31;4.03;;;2.80;;
76103;SDS011;64831;44.870;37.336;2023-08-06T14:09:56;13.40;;;3.10;;
76103;SDS011;64831;44.870;37.336;2023-08-06T14:12:23;6.68;;;2.75;;
76103;SDS011;64831;44.870;37.336;2023-08-06T14:14:49;4.28;;;2.22;;
76103;SDS011;64831;44.870;37.336;2023-08-06T14:17:15;8.68;;;3.47;;
76103;SDS011;64831;44.870;37.336;2023-08-06T14:19:41;6.30;;;2.88;;
76103;SDS011;64831;44.870;37.336;2023-08-06T14:22:07;8.32;;;3.70;;
76103;SDS011;64831;44.870;37.336;2023-08-06T14:24:33;6.72;;;3.15;;
76103;SDS011;64831;44.870;37.336;2023-08-06T14:26:59;7.65;;;3.00;;
76103;SDS011;64831;44.870;37.336;2023-08-06T14:29:25;12.35;;;3.10;;
76103;SDS011;64831;44.870;37.336;2023-08-06T14:31:51;8.23;;;3.10;;
76103;SDS011;64831;44.870;37.336;2023-08-06T14:34:17;7.85;;;3.00;;
76103;SDS011;64831;44.870;37.336;2023-08-06T14:36:43;8.20;;;3.42;;
76103;SDS011;64831;44.870;37.336;2023-08-06T14:39:09;9.07;;;3.17;;
76103;SDS011;64831;44.870;37.336;2023-08-06T14:41:35;7.43;;;3.10;;
76103;SDS011;64831;44.870;37.336;2023-08-06T14:44:01;9.18;;;2.75;;
76103;SDS011;64831;44.870;37.336;2023-08-06T14:46:27;10.48;;;2.80;;
76103;SDS011;64831;44.870;37.336;2023-08-06T14:48:52;8.30;;;3.15;;
76103;SDS011;64831;44.870;37.336;2023-08-06T14:51:18;10.00;;;3.15;;
76103;SDS011;64831;44.870;37.336;2023-08-06T14:53:45;11.10;;;3.42;;
76103;SDS011;64831;44.870;37.336;2023-08-06T14:56:11;7.25;;;2.83;;
76103;SDS011;64831;44.870;37.336;2023-08-06T14:58:38;9.20;;;3.05;;
76103;SDS011;64831;44.870;37.336;2023-08-06T15:01:03;10.93;;;3.40;;
76103;SDS011;64831;44.870;37.336;2023-08-06T15:03:29;7.32;;;2.90;;